createdAt,value
2023-02-17T00:01:25.513Z,100706.19
2023-02-17T00:03:53.838Z,100704.47
2023-02-17T00:06:24.408Z,100703.59
2023-02-17T00:08:52.779Z,100706.16
2023-02-17T00:11:20.778Z,100699.28
2023-02-17T00:13:48.645Z,100694.97
2023-02-17T00:16:21.489Z,100694.97
2023-02-17T00:19:00.765Z,100695.84
2023-02-17T00:21:32.318Z,100690.69
2023-02-17T00:24:00.529Z,100688.94
2023-02-17T00:26:28.372Z,100689.78
2023-02-17T00:28:57.930Z,100689.78
2023-02-17T00:31:25.655Z,100682.91
2023-02-17T00:33:56.041Z,100683.75
2023-02-17T00:36:24.244Z,100681.16
2023-02-17T00:38:53.909Z,100677.72
2023-02-17T00:41:23.224Z,100676.84
2023-02-17T00:43:51.074Z,100685.47
2023-02-17T00:46:19.245Z,100682.03
2023-02-17T00:48:48.202Z,100680.31
2023-02-17T00:51:17.374Z,100671.69
2023-02-17T00:53:45.896Z,100677.72
2023-02-17T00:56:14.283Z,100671.66
2023-02-17T00:58:42.514Z,100669.91
2023-02-17T01:01:11.372Z,100669.91
2023-02-17T01:03:42.328Z,100664.69
2023-02-17T01:06:18.564Z,100662.13
2023-02-17T01:08:46.450Z,100659.53
2023-02-17T01:11:19.356Z,100656.03
2023-02-17T01:13:47.350Z,100657.75
2023-02-17T01:16:42.059Z,100652.56
2023-02-17T01:19:14.198Z,100643.91
2023-02-17T01:21:42.282Z,100636.97
2023-02-17T01:24:13.320Z,100641.34
2023-02-17T01:26:41.239Z,100643.09
2023-02-17T01:29:09.274Z,100632.66
2023-02-17T01:31:37.420Z,100633.50
2023-02-17T01:34:05.683Z,100628.28
2023-02-17T01:36:33.593Z,100634.34
2023-02-17T01:39:01.719Z,100635.22
2023-02-17T01:41:29.909Z,100626.59
2023-02-17T01:44:21.731Z,100630.00
2023-02-17T01:46:51.836Z,100617.91
2023-02-17T01:49:22.522Z,100618.78
2023-02-17T01:51:59.965Z,100617.91
2023-02-17T01:54:33.475Z,100614.44
2023-02-17T01:57:03.122Z,100604.09
2023-02-17T01:59:32.077Z,100607.59
2023-02-17T02:02:03.578Z,100614.56
2023-02-17T02:04:36.067Z,100609.28
2023-02-17T02:07:06.157Z,100611.00
2023-02-17T02:09:40.993Z,100605.84
2023-02-17T02:12:30.064Z,100606.69
2023-02-17T02:15:06.048Z,100605.81
2023-02-17T02:18:04.642Z,100606.69
2023-02-17T02:21:02.801Z,100604.06
2023-02-17T02:23:54.187Z,100598.94
2023-02-17T02:29:26.273Z,100592.00
2023-02-17T02:32:09.110Z,100596.31
2023-02-17T02:34:57.687Z,100591.13
2023-02-17T02:37:32.908Z,100594.56
2023-02-17T02:40:06.758Z,100591.13
2023-02-17T02:42:37.125Z,100589.41
2023-02-17T02:45:10.670Z,100586.72
2023-02-17T02:47:49.858Z,100579.81
2023-02-17T02:50:44.927Z,100576.34
2023-02-17T02:53:38.591Z,100576.31
2023-02-17T02:56:15.116Z,100575.53
2023-02-17T02:59:22.009Z,100569.41
2023-02-17T03:02:14.008Z,100572.88
2023-02-17T03:05:06.316Z,100578.09
2023-02-17T03:07:47.496Z,100578.91
2023-02-17T03:10:16.234Z,100576.28
2023-02-17T03:12:44.314Z,100579.69
2023-02-17T03:15:26.729Z,100582.34
2023-02-17T03:17:58.081Z,100586.63
2023-02-17T03:20:32.939Z,100591.75
2023-02-17T03:23:00.683Z,100588.28
2023-02-17T03:25:30.192Z,100587.41
2023-02-17T03:27:58.239Z,100585.69
2023-02-17T03:30:26.695Z,100583.13
2023-02-17T03:32:54.543Z,100588.25
2023-02-17T03:35:22.469Z,100578.75
2023-02-17T03:37:50.359Z,100571.06
2023-02-17T03:40:18.461Z,100574.41
2023-02-17T03:42:46.366Z,100586.50
2023-02-17T03:45:14.428Z,100571.13
2023-02-17T03:47:42.123Z,100581.41
2023-02-17T03:50:10.400Z,100588.25
2023-02-17T03:52:38.173Z,100578.72
2023-02-17T03:55:06.377Z,100583.09
2023-02-17T03:57:34.862Z,100586.56
2023-02-17T04:00:04.513Z,100574.41
2023-02-17T04:02:43.695Z,100574.47
2023-02-17T04:05:12.033Z,100579.63
2023-02-17T04:07:39.840Z,100583.09
2023-02-17T04:10:09.505Z,100588.25
2023-02-17T04:12:37.418Z,100581.28
2023-02-17T04:15:05.696Z,100574.41
2023-02-17T04:17:33.476Z,100563.97
2023-02-17T04:20:01.378Z,100576.16
2023-02-17T04:22:29.354Z,100562.31
2023-02-17T04:24:57.281Z,100560.56
2023-02-17T04:27:24.992Z,100557.19
2023-02-17T04:29:53.052Z,100553.69
2023-02-17T04:32:20.738Z,100556.28
2023-02-17T04:34:48.682Z,100554.56
2023-02-17T04:37:16.389Z,100555.41
2023-02-17T04:39:44.391Z,100563.25
2023-02-17T04:42:12.065Z,100558.03
2023-02-17T04:44:39.978Z,100563.19
2023-02-17T04:47:07.678Z,100558.00
2023-02-17T04:49:35.636Z,100544.94
2023-02-17T04:52:03.448Z,100548.47
2023-02-17T04:54:31.394Z,100547.63
2023-02-17T04:56:59.044Z,100548.53
2023-02-17T04:59:27.102Z,100538.03
2023-02-17T05:01:54.742Z,100531.97
2023-02-17T05:04:22.848Z,100526.84
2023-02-17T05:06:50.594Z,100520.84
2023-02-17T05:09:18.659Z,100528.69
2023-02-17T05:11:46.370Z,100520.91
2023-02-17T05:14:14.696Z,100528.63
2023-02-17T05:16:42.480Z,100534.69
2023-02-17T05:19:10.452Z,100534.72
2023-02-17T05:21:38.296Z,100520.75
2023-02-17T05:24:06.514Z,100532.00
2023-02-17T05:26:34.390Z,100519.88
2023-02-17T05:29:02.412Z,100514.81
2023-02-17T05:31:30.403Z,100515.69
2023-02-17T05:33:58.567Z,100510.38
2023-02-17T05:36:26.291Z,100508.72
2023-02-17T05:38:54.396Z,100508.81
2023-02-17T05:41:22.372Z,100506.22
2023-02-17T05:43:50.343Z,100507.16
2023-02-17T05:46:18.125Z,100526.19
2023-02-17T05:48:46.312Z,100517.53
2023-02-17T05:51:17.190Z,100513.03
2023-02-17T05:53:45.432Z,100510.53
2023-02-17T05:56:13.145Z,100501.13
2023-02-17T05:58:41.079Z,100501.13
2023-02-17T06:01:13.216Z,100503.78
2023-02-17T06:03:41.464Z,100498.63
2023-02-17T06:06:09.273Z,100500.34
2023-02-17T06:08:37.491Z,100495.16
2023-02-17T06:11:05.340Z,100490.81
2023-02-17T06:13:33.653Z,100489.13
2023-02-17T06:16:01.519Z,100494.09
2023-02-17T06:18:30.082Z,100502.06
2023-02-17T06:20:58.693Z,100505.47
2023-02-17T06:23:27.656Z,100502.03
2023-02-17T06:25:55.665Z,100502.84
2023-02-17T06:28:23.670Z,100497.56
2023-02-17T06:30:51.499Z,100488.22
2023-02-17T06:33:19.610Z,100492.56
2023-02-17T06:35:51.945Z,100493.31
2023-02-17T06:38:20.499Z,100493.34
2023-02-17T06:40:48.286Z,100491.69
2023-02-17T06:43:16.313Z,100490.84
2023-02-17T06:45:44.212Z,100492.53
2023-02-17T06:48:12.446Z,100491.69
2023-02-17T06:50:40.312Z,100489.97
2023-02-17T06:53:08.558Z,100493.25
2023-02-17T06:55:37.341Z,100493.22
2023-02-17T06:58:05.430Z,100493.25
2023-02-17T07:00:33.202Z,100487.28
2023-02-17T07:03:01.357Z,100472.34
2023-02-17T07:05:29.248Z,100484.75
2023-02-17T07:08:00.293Z,100482.03
2023-02-17T07:10:28.055Z,100482.84
2023-02-17T07:12:56.035Z,100482.78
2023-02-17T07:15:23.725Z,100477.53
2023-02-17T07:17:51.685Z,100469.63
2023-02-17T07:20:19.538Z,100469.44
2023-02-17T07:22:47.537Z,100470.44
2023-02-17T07:25:15.309Z,100463.38
2023-02-17T07:27:43.356Z,100468.59
2023-02-17T07:30:11.675Z,100468.53
2023-02-17T07:32:39.725Z,100464.19
2023-02-17T07:35:07.583Z,100458.91
2023-02-17T07:37:35.758Z,100456.03
2023-02-17T07:40:04.231Z,100460.38
2023-02-17T07:42:32.274Z,100454.03
2023-02-17T07:45:00.024Z,100454.88
2023-02-17T07:47:28.055Z,100464.44
2023-02-17T07:49:55.969Z,100468.50
2023-02-17T07:52:23.942Z,100465.88
2023-02-17T07:54:51.707Z,100466.69
2023-02-17T07:57:19.688Z,100461.50
2023-02-17T07:59:48.208Z,100465.75
2023-02-17T08:02:16.470Z,100458.00
2023-02-17T08:04:44.756Z,100453.41
2023-02-17T08:07:12.782Z,100454.50
2023-02-17T08:09:59.234Z,100451.84
2023-02-17T08:12:45.844Z,100455.16
2023-02-17T08:15:13.812Z,100444.66
2023-02-17T08:17:41.929Z,100450.72
2023-02-17T08:20:10.114Z,100452.22
2023-02-17T08:22:38.532Z,100449.50
2023-02-17T08:25:06.552Z,100447.78
2023-02-17T08:27:34.815Z,100439.06
2023-02-17T08:30:02.752Z,100436.28
2023-02-17T08:32:30.802Z,100445.84
2023-02-17T08:34:58.946Z,100440.25
2023-02-17T08:37:27.215Z,100442.75
2023-02-17T08:39:54.970Z,100436.50
2023-02-17T08:42:23.417Z,100440.81
2023-02-17T08:44:51.367Z,100433.00
2023-02-17T08:47:19.478Z,100435.56
2023-02-17T08:49:47.204Z,100436.59
2023-02-17T08:52:15.697Z,100424.56
2023-02-17T08:54:43.398Z,100425.34
2023-02-17T08:57:11.531Z,100426.81
2023-02-17T08:59:39.278Z,100422.44
2023-02-17T09:02:07.480Z,100420.72
2023-02-17T09:04:35.245Z,100419.38
2023-02-17T09:07:03.401Z,100421.13
2023-02-17T09:09:31.752Z,100419.91
2023-02-17T09:11:59.902Z,100412.97
2023-02-17T09:14:28.054Z,100417.84
2023-02-17T09:16:56.694Z,100410.41
2023-02-17T09:19:25.032Z,100413.69
2023-02-17T09:21:53.917Z,100412.88
2023-02-17T09:24:21.566Z,100415.34
2023-02-17T09:26:49.586Z,100413.50
2023-02-17T09:29:17.306Z,100409.94
2023-02-17T09:31:46.165Z,100411.38
2023-02-17T09:34:15.283Z,100406.50
2023-02-17T09:36:43.871Z,100406.69
2023-02-17T09:39:14.008Z,100402.31
2023-02-17T09:41:52.099Z,100397.91
2023-02-17T09:44:24.738Z,100396.13
2023-02-17T09:47:16.271Z,100386.72
2023-02-17T09:50:06.734Z,100389.13
2023-02-17T09:52:49.194Z,100375.22
2023-02-17T09:55:29.974Z,100376.56
2023-02-17T09:58:13.299Z,100377.47
2023-02-17T10:00:46.598Z,100363.47
2023-02-17T10:03:33.655Z,100363.91
2023-02-17T10:06:27.666Z,100371.72
2023-02-17T10:08:59.112Z,100360.63
2023-02-17T10:11:40.417Z,100362.22
2023-02-17T10:14:28.999Z,100361.72
2023-02-17T10:17:23.497Z,100345.19
2023-02-17T10:19:54.894Z,100345.28
2023-02-17T10:22:24.460Z,100350.53
2023-02-17T10:24:53.428Z,100341.28
2023-02-17T10:27:39.558Z,100338.47
2023-02-17T10:30:19.730Z,100345.53
2023-02-17T10:33:01.744Z,100335.38
2023-02-17T10:35:38.841Z,100332.34
2023-02-17T10:38:34.825Z,100346.75
2023-02-17T10:41:05.991Z,100341.63
2023-02-17T10:43:34.536Z,100337.91
2023-02-17T10:46:08.245Z,100333.75
2023-02-17T10:48:40.925Z,100326.81
2023-02-17T10:51:13.429Z,100320.53
2023-02-17T10:53:44.397Z,100309.06
2023-02-17T10:56:15.278Z,100302.06
2023-02-17T10:59:06.591Z,100294.28
2023-02-17T11:01:36.472Z,100296.81
2023-02-17T11:04:08.510Z,100291.16
2023-02-17T11:06:54.938Z,100279.78
2023-02-17T11:09:28.902Z,100277.47
2023-02-17T11:12:04.582Z,100270.22
2023-02-17T11:14:33.803Z,100271.66
2023-02-17T11:17:15.007Z,100262.75
2023-02-17T11:19:42.761Z,100253.16
2023-02-17T11:22:31.019Z,100244.22
2023-02-17T11:25:00.778Z,100237.53
2023-02-17T11:27:28.858Z,100231.34
2023-02-17T11:30:14.905Z,100234.63
2023-02-17T11:32:42.946Z,100226.75
2023-02-17T11:35:27.319Z,100220.19
2023-02-17T11:38:12.739Z,100207.41
2023-02-17T11:40:52.022Z,100197.84
2023-02-17T11:43:20.587Z,100193.47
2023-02-17T11:46:17.936Z,100185.66
2023-02-17T11:49:21.766Z,100179.31
2023-02-17T11:51:52.276Z,100171.44
2023-02-17T11:54:44.581Z,100171.50
2023-02-17T11:57:37.042Z,100161.72
2023-02-17T12:00:13.688Z,100162.66
2023-02-17T12:02:59.440Z,100162.25
2023-02-17T12:05:39.956Z,100160.34
2023-02-17T12:08:22.410Z,100150.97
2023-02-17T12:11:32.361Z,100137.81
2023-02-17T12:14:31.630Z,100128.28
2023-02-17T12:17:22.251Z,100121.13
2023-02-17T12:20:07.226Z,100117.31
2023-02-17T12:23:13.457Z,100114.88
2023-02-17T12:26:04.659Z,100111.03
2023-02-17T12:28:49.594Z,100098.59
2023-02-17T12:31:44.962Z,100091.75
2023-02-17T12:34:29.908Z,100080.56
2023-02-17T12:36:59.276Z,100053.84
2023-02-17T12:39:34.559Z,100064.00
2023-02-17T12:42:27.208Z,100052.78
2023-02-17T12:45:03.299Z,100056.25
2023-02-17T12:47:39.053Z,100047.03
2023-02-17T12:50:28.780Z,100044.25
2023-02-17T12:53:02.050Z,100044.94
2023-02-17T12:55:48.807Z,100040.28
2023-02-17T12:58:25.159Z,100039.84
2023-02-17T13:01:19.047Z,100039.81
2023-02-17T13:03:46.935Z,100039.31
2023-02-17T13:06:30.338Z,100034.38
2023-02-17T13:09:16.828Z,100027.69
2023-02-17T13:11:45.686Z,100026.22
2023-02-17T13:14:27.401Z,100014.47
2023-02-17T13:16:55.873Z,100012.22
2023-02-17T13:19:32.727Z,100005.16
2023-02-17T13:22:05.713Z,100006.94
2023-02-17T13:24:35.002Z,100000.75
2023-02-17T13:27:31.291Z,99994.78
2023-02-17T13:30:01.951Z,99984.69
2023-02-17T13:32:34.376Z,99984.34
2023-02-17T13:35:17.793Z,99981.91
2023-02-17T13:37:46.843Z,99981.66
2023-02-17T13:40:20.187Z,99980.53
2023-02-17T13:43:07.944Z,99984.09
2023-02-17T13:45:57.538Z,99975.84
2023-02-17T13:48:28.634Z,99974.75
2023-02-17T13:51:00.284Z,99967.16
2023-02-17T13:53:37.921Z,99964.16
2023-02-17T13:56:07.600Z,99947.78
2023-02-17T13:58:38.762Z,99960.50
2023-02-17T14:01:15.297Z,99952.13
2023-02-17T14:03:46.695Z,99952.19
2023-02-17T14:06:40.673Z,99939.16
2023-02-17T14:09:24.693Z,99940.09
2023-02-17T14:11:54.162Z,99938.47
2023-02-17T14:14:26.238Z,99936.75
2023-02-17T14:17:02.427Z,99933.41
2023-02-17T14:19:42.154Z,99928.22
2023-02-17T14:22:28.944Z,99917.56
2023-02-17T14:25:07.016Z,99904.59
2023-02-17T14:27:45.324Z,99902.06
2023-02-17T14:30:29.899Z,99901.97
2023-02-17T14:33:16.344Z,99887.88
2023-02-17T14:35:53.641Z,99879.41
2023-02-17T14:38:28.556Z,99877.03
2023-02-17T14:40:56.952Z,99875.31
2023-02-17T14:43:25.189Z,99862.59
2023-02-17T14:45:53.603Z,99848.56
2023-02-17T14:48:21.386Z,99847.63
2023-02-17T14:50:49.584Z,99843.91
2023-02-17T14:53:36.528Z,99833.75
2023-02-17T14:56:12.618Z,99835.44
2023-02-17T14:58:40.605Z,99819.81
2023-02-17T15:01:14.939Z,99809.53
2023-02-17T15:03:42.768Z,99806.72
2023-02-17T15:06:16.689Z,99794.59
2023-02-17T15:08:46.004Z,99798.28
2023-02-17T15:11:24.485Z,99794.69
2023-02-17T15:13:52.287Z,99785.19
2023-02-17T15:16:20.275Z,99782.63
2023-02-17T15:18:47.981Z,99773.78
2023-02-17T15:21:26.934Z,99772.09
2023-02-17T15:23:55.630Z,99772.16
2023-02-17T15:26:23.780Z,99770.38
2023-02-17T15:28:51.889Z,99758.03
2023-02-17T15:31:21.602Z,99758.03
2023-02-17T15:34:13.230Z,99752.13
2023-02-17T15:36:41.187Z,99745.94
2023-02-17T15:39:11.610Z,99742.47
2023-02-17T15:41:40.939Z,99734.81
2023-02-17T15:44:16.361Z,99742.97
2023-02-17T15:46:46.205Z,99725.88
2023-02-17T15:49:14.678Z,99724.00
2023-02-17T15:51:42.917Z,99719.69
2023-02-17T15:54:10.689Z,99715.50
2023-02-17T15:56:49.612Z,99704.69
2023-02-17T15:59:21.137Z,99697.81
2023-02-17T16:01:50.773Z,99695.47
2023-02-17T16:04:18.950Z,99697.25
2023-02-17T16:06:46.976Z,99686.84
2023-02-17T16:09:15.073Z,99684.19
2023-02-17T16:12:01.655Z,99674.53
2023-02-17T16:14:35.352Z,99672.75
2023-02-17T16:17:04.361Z,99665.75
2023-02-17T16:19:33.455Z,99669.06
2023-02-17T16:22:01.835Z,99671.84
2023-02-17T16:24:29.764Z,99664.31
2023-02-17T16:26:57.794Z,99647.28
2023-02-17T16:29:25.468Z,99649.84
2023-02-17T16:31:54.376Z,99645.22
2023-02-17T16:34:24.188Z,99637.34
2023-02-17T16:36:56.649Z,99632.91
2023-02-17T16:39:24.464Z,99622.50
2023-02-17T16:41:52.541Z,99621.06
2023-02-17T16:44:23.316Z,99619.78
2023-02-17T16:46:53.634Z,99605.38
2023-02-17T16:49:33.809Z,99612.28
2023-02-17T16:52:05.008Z,99601.13
2023-02-17T16:54:35.475Z,99606.16
2023-02-17T16:57:03.873Z,99605.31
2023-02-17T16:59:32.944Z,99598.38
2023-02-17T17:02:01.578Z,99592.13
2023-02-17T17:04:29.398Z,99582.66
2023-02-17T17:06:57.419Z,99580.47
2023-02-17T17:09:25.450Z,99582.38
2023-02-17T17:11:53.722Z,99564.94
2023-02-17T17:14:21.957Z,99563.34
2023-02-17T17:16:58.591Z,99549.47
2023-02-17T17:19:26.371Z,99553.72
2023-02-17T17:21:54.371Z,99538.22
2023-02-17T17:24:22.439Z,99528.59
2023-02-17T17:26:51.593Z,99539.97
2023-02-17T17:29:20.124Z,99535.63
2023-02-17T17:31:48.738Z,99518.00
2023-02-17T17:34:16.590Z,99527.50
2023-02-17T17:36:46.884Z,99513.63
2023-02-17T17:39:17.932Z,99503.03
2023-02-17T17:41:46.446Z,99498.22
2023-02-17T17:44:14.349Z,99489.72
2023-02-17T17:46:42.799Z,99475.59
2023-02-17T17:49:13.642Z,99473.16
2023-02-17T17:51:41.854Z,99460.13
2023-02-17T17:54:09.782Z,99462.09
2023-02-17T17:56:42.970Z,99466.41
2023-02-17T17:59:12.049Z,99460.84
2023-02-17T18:01:40.103Z,99454.94
2023-02-17T18:04:09.418Z,99452.22
2023-02-17T18:06:48.745Z,99453.94
2023-02-17T18:09:31.408Z,99441.38
2023-02-17T18:12:04.533Z,99434.28
2023-02-17T18:14:34.868Z,99439.91
2023-02-17T18:17:03.195Z,99436.50
2023-02-17T18:19:32.144Z,99426.91
2023-02-17T18:22:00.187Z,99420.31
2023-02-17T18:24:28.260Z,99412.78
2023-02-17T18:26:56.336Z,99409.91
2023-02-17T18:29:24.266Z,99410.00
2023-02-17T18:31:52.723Z,99404.47
2023-02-17T18:34:20.619Z,99400.75
2023-02-17T18:36:48.634Z,99390.44
2023-02-17T18:39:16.397Z,99385.28
2023-02-17T18:41:44.410Z,99380.47
2023-02-17T18:44:13.726Z,99384.16
2023-02-17T18:46:42.551Z,99380.25
2023-02-17T18:49:10.704Z,99380.25
2023-02-17T18:51:38.724Z,99378.34
2023-02-17T18:54:10.860Z,99362.59
2023-02-17T18:56:39.092Z,99362.44
2023-02-17T18:59:07.553Z,99370.88
2023-02-17T19:01:39.564Z,99371.03
2023-02-17T19:04:09.702Z,99376.19
2023-02-17T19:06:37.760Z,99366.56
2023-02-17T19:09:05.999Z,99356.94
2023-02-17T19:11:34.194Z,99361.47
2023-02-17T19:14:03.284Z,99367.47
2023-02-17T19:16:32.606Z,99347.31
2023-02-17T19:19:00.884Z,99349.81
2023-02-17T19:21:29.024Z,99345.44
2023-02-17T19:23:56.977Z,99341.66
2023-02-17T19:26:25.049Z,99344.94
2023-02-17T19:28:52.845Z,99332.47
2023-02-17T19:31:21.315Z,99337.97
2023-02-17T19:33:49.268Z,99343.97
2023-02-17T19:36:20.393Z,99347.00
2023-02-17T19:38:49.636Z,99343.97
2023-02-17T19:41:18.703Z,99319.38
2023-02-17T19:43:46.649Z,99327.06
2023-02-17T19:46:21.009Z,99317.31
2023-02-17T19:48:48.834Z,99315.25
2023-02-17T19:51:16.912Z,99315.13
2023-02-17T19:53:45.128Z,99306.25
2023-02-17T19:56:25.819Z,99320.78
2023-02-17T19:58:54.295Z,99311.22
2023-02-17T20:01:25.218Z,99320.41
2023-02-17T20:03:54.667Z,99313.28
2023-02-17T20:06:31.297Z,99312.91
2023-02-17T20:09:05.081Z,99317.66
2023-02-17T20:11:33.515Z,99322.75
2023-02-17T20:14:02.385Z,99309.78
2023-02-17T20:16:31.171Z,99311.28
2023-02-17T20:19:03.266Z,99320.41
2023-02-17T20:21:33.629Z,99313.38
2023-02-17T20:24:01.788Z,99317.69
2023-02-17T20:26:38.271Z,99307.75
2023-02-17T20:29:06.325Z,99299.72
2023-02-17T20:31:39.275Z,99302.78
2023-02-17T20:34:08.662Z,99306.13
2023-02-17T20:36:36.607Z,99298.47
2023-02-17T20:39:05.221Z,99297.03
2023-02-17T20:41:33.145Z,99285.97
2023-02-17T20:44:02.928Z,99288.31
2023-02-17T20:46:31.873Z,99286.81
2023-02-17T20:48:59.701Z,99279.63
2023-02-17T20:51:27.678Z,99276.09
2023-02-17T20:53:55.332Z,99273.56
2023-02-17T20:56:24.935Z,99274.78
2023-02-17T20:58:53.029Z,99275.81
2023-02-17T21:01:21.129Z,99275.97
2023-02-17T21:03:49.387Z,99268.78
2023-02-17T21:06:24.509Z,99280.06
2023-02-17T21:08:55.094Z,99277.44
2023-02-17T21:11:23.595Z,99256.56
2023-02-17T21:13:51.510Z,99263.41
2023-02-17T21:16:23.687Z,99262.84
2023-02-17T21:18:51.885Z,99244.94
2023-02-17T21:21:20.548Z,99250.50
2023-02-17T21:23:48.429Z,99248.31
2023-02-17T21:26:17.373Z,99244.91
2023-02-17T21:28:45.843Z,99235.38
2023-02-17T21:31:15.067Z,99239.56
2023-02-17T21:33:43.335Z,99229.25
2023-02-17T21:36:14.327Z,99225.19
2023-02-17T21:38:42.220Z,99223.03
2023-02-17T21:41:16.049Z,99221.06
2023-02-17T21:44:02.565Z,99211.75
2023-02-17T21:46:30.609Z,99229.81
2023-02-17T21:48:59.708Z,99202.78
2023-02-17T21:51:29.106Z,99214.00
2023-02-17T21:53:56.794Z,99200.47
2023-02-17T21:56:25.770Z,99221.06
2023-02-17T21:58:55.452Z,99215.84
2023-02-17T22:01:25.181Z,99224.88
2023-02-17T22:03:53.710Z,99209.06
2023-02-17T22:06:23.260Z,99217.41
2023-02-17T22:08:51.532Z,99212.75
2023-02-17T22:11:22.375Z,99225.31
2023-02-17T22:13:50.173Z,99229.38
2023-02-17T22:16:18.172Z,99228.13
2023-02-17T22:18:45.790Z,99233.78
2023-02-17T22:21:14.637Z,99266.50
2023-02-17T22:23:45.060Z,99243.03
2023-02-17T22:26:20.166Z,99228.41
2023-02-17T22:28:48.514Z,99238.41
2023-02-17T22:31:19.359Z,99238.09
2023-02-17T22:33:47.269Z,99239.78
2023-02-17T22:36:20.018Z,99233.44
2023-02-17T22:38:48.100Z,99235.78
2023-02-17T22:41:18.896Z,99223.94
2023-02-17T22:43:48.295Z,99222.59
2023-02-17T22:46:18.674Z,99223.69
2023-02-17T22:48:48.365Z,99223.97
2023-02-17T22:51:22.115Z,99220.59
2023-02-17T22:53:50.798Z,99236.47
2023-02-17T22:56:19.379Z,99250.59
2023-02-17T22:58:47.449Z,99240.84
2023-02-17T23:01:22.767Z,99244.09
2023-02-17T23:03:53.045Z,99258.41
2023-02-17T23:06:28.560Z,99252.13
2023-02-17T23:08:57.140Z,99240.06
2023-02-17T23:11:49.796Z,99254.06
2023-02-17T23:14:23.028Z,99252.97
2023-02-17T23:16:52.191Z,99248.84
2023-02-17T23:19:21.267Z,99255.69
2023-02-17T23:21:52.414Z,99250.22
2023-02-17T23:24:22.326Z,99254.22
2023-02-17T23:26:50.982Z,99259.66
2023-02-17T23:29:19.437Z,99247.16
2023-02-17T23:31:47.593Z,99265.84
2023-02-17T23:34:16.527Z,99270.09
2023-02-17T23:36:46.303Z,99262.75
2023-02-17T23:39:15.155Z,99268.63
2023-02-17T23:41:43.718Z,99270.56
2023-02-17T23:44:13.267Z,99254.81
2023-02-17T23:46:43.212Z,99256.88
2023-02-17T23:49:14.726Z,99254.38
2023-02-17T23:51:43.291Z,99256.94
2023-02-17T23:54:11.069Z,99273.50
2023-02-17T23:56:39.348Z,99258.56
2023-02-17T23:59:07.148Z,99272.13
